Time;durP1;ratioP1;P1;durP2;ratioP2;P2;SDS_P1;SDS_P2;PMS_P1;PMS_P2;Temp;Humidity;BMP_temperature;BMP_pressure;BME280_temperature;BME280_humidity;BME280_pressure;Samples;Min_cycle;Max_cycle;Signal;HPM_P1;HPM_P2
2022/12/07 00:01:38;;;;;;;1999.90;999.90;;;6.10;1.00;;;;;;5011376;28;20046;-75
2022/12/07 00:04:05;;;;;;;1999.90;999.90;;;7.40;1.00;;;;;;4987890;28;20052;-76
2022/12/07 00:06:44;;;;;;;1999.90;999.90;;;7.60;1.00;;;;;;5010583;28;20033;-75
2022/12/07 00:09:13;;;;;;;1999.90;999.90;;;6.30;1.00;;;;;;5012034;28;20277;-75
2022/12/07 00:11:39;;;;;;;1999.90;999.90;;;6.80;1.00;;;;;;5011580;28;20062;-75
2022/12/07 00:14:13;;;;;;;1999.90;999.90;;;6.20;1.00;;;;;;5011650;28;20054;-76
2022/12/07 00:16:40;;;;;;;1999.90;999.90;;;6.20;1.00;;;;;;5009464;28;20049;-76
2022/12/07 00:19:06;;;;;;;1999.90;999.90;;;6.20;1.00;;;;;;5011053;28;20049;-75
2022/12/07 00:21:34;;;;;;;1999.90;999.90;;;7.50;1.00;;;;;;5013044;28;20103;-75
2022/12/07 00:24:01;;;;;;;1999.90;999.90;;;6.20;1.00;;;;;;5012522;28;20465;-75
2022/12/07 00:26:32;;;;;;;1999.90;999.90;;;6.20;1.00;;;;;;5012972;28;20065;-82
2022/12/07 00:29:00;;;;;;;1999.90;999.90;;;6.40;1.00;;;;;;5013898;28;20125;-75
2022/12/07 00:31:29;;;;;;;1999.90;999.90;;;6.40;1.00;;;;;;5013642;28;20042;-75
2022/12/07 00:33:56;;;;;;;1999.90;999.90;;;7.20;99.90;;;;;;5011502;28;20129;-75
2022/12/07 00:36:24;;;;;;;1999.90;999.90;;;7.60;99.90;;;;;;5010721;28;20037;-75
2022/12/07 00:38:49;;;;;;;1999.90;999.90;;;6.20;99.90;;;;;;5015209;28;20037;-75
2022/12/07 00:41:18;;;;;;;1999.90;999.90;;;7.70;99.90;;;;;;5012611;28;20038;-75
2022/12/07 00:43:45;;;;;;;1999.90;999.90;;;7.70;99.90;;;;;;5013256;28;20113;-75
2022/12/07 00:46:11;;;;;;;1999.90;999.90;;;6.80;99.90;;;;;;5009556;28;20038;-75
2022/12/07 00:48:38;;;;;;;1999.90;999.90;;;6.20;99.90;;;;;;4996263;28;20128;-75
2022/12/07 00:51:04;;;;;;;1999.90;999.90;;;4.30;99.90;;;;;;5014833;28;20049;-75
2022/12/07 00:53:30;;;;;;;1999.90;999.90;;;6.00;99.90;;;;;;5013236;28;20399;-75
2022/12/07 00:55:56;;;;;;;1999.90;999.90;;;7.60;99.90;;;;;;5013902;28;20045;-75
2022/12/07 00:58:23;;;;;;;1999.90;999.90;;;6.40;99.90;;;;;;5014156;28;20128;-75
2022/12/07 01:00:48;;;;;;;1999.90;999.90;;;6.10;99.90;;;;;;4997660;28;20049;-75
2022/12/07 01:03:15;;;;;;;1999.90;999.90;;;6.00;1.00;;;;;;5013481;28;20038;-75
2022/12/07 01:05:52;;;;;;;1999.90;999.90;;;6.60;1.00;;;;;;4996532;28;20463;-76
2022/12/07 01:08:18;;;;;;;1999.90;999.90;;;6.00;1.00;;;;;;4997313;28;20363;-75
2022/12/07 01:10:44;;;;;;;1999.90;999.90;;;7.80;1.00;;;;;;5013206;28;20038;-76
2022/12/07 01:13:10;;;;;;;1999.90;999.90;;;7.30;1.00;;;;;;4996533;28;20252;-76
2022/12/07 01:15:42;;;;;;;1999.90;999.90;;;7.00;1.00;;;;;;5013715;28;20177;-75
2022/12/07 01:18:09;;;;;;;1999.90;999.90;;;6.50;1.00;;;;;;5014360;28;20407;-75
2022/12/07 01:20:34;;;;;;;1999.90;999.90;;;5.80;1.00;;;;;;5013524;28;20053;-76
2022/12/07 01:23:00;;;;;;;1999.90;999.90;;;5.70;1.00;;;;;;5013137;28;20045;-76
2022/12/07 01:25:26;;;;;;;1999.90;999.90;;;6.00;1.00;;;;;;4990726;28;20050;-76
2022/12/07 01:27:51;;;;;;;1999.90;999.90;;;7.60;1.00;;;;;;5009812;28;20532;-75
2022/12/07 01:30:17;;;;;;;1999.90;999.90;;;6.70;1.00;;;;;;4996016;28;20240;-75
2022/12/07 01:32:43;;;;;;;1999.90;999.90;;;6.80;43.50;;;;;;5011226;28;20037;-76
2022/12/07 01:35:09;;;;;;;1999.90;999.90;;;9.60;99.90;;;;;;5011166;28;20096;-76
2022/12/07 01:37:35;;;;;;;1999.90;999.90;;;6.80;90.30;;;;;;5012293;28;20037;-76
2022/12/07 01:40:02;;;;;;;1999.90;999.90;;;7.60;20.80;;;;;;5011256;28;20116;-76
2022/12/07 01:42:29;;;;;;;1999.90;999.90;;;6.60;99.90;;;;;;5009973;28;20038;-76
2022/12/07 01:45:16;;;;;;;1999.90;999.90;;;6.80;1.00;;;;;;5009589;28;20206;-80
2022/12/07 01:47:45;;;;;;;1999.90;999.90;;;6.70;1.00;;;;;;5002109;28;20475;-78
2022/12/07 01:50:11;;;;;;;1999.90;999.90;;;6.40;1.00;;;;;;5010475;28;20034;-75
2022/12/07 01:52:39;;;;;;;1999.90;999.90;;;7.10;99.90;;;;;;4994894;28;20459;-76
2022/12/07 01:55:08;;;;;;;1999.90;999.90;;;7.90;73.00;;;;;;5011982;28;20164;-76
2022/12/07 01:57:39;;;;;;;1999.90;999.90;;;7.00;99.90;;;;;;4994401;28;20042;-75
2022/12/07 02:00:06;;;;;;;1999.90;999.90;;;8.50;99.90;;;;;;4993430;28;20382;-76
2022/12/07 02:02:41;;;;;;;1999.90;999.90;;;7.10;99.90;;;;;;5011402;28;20045;-76
2022/12/07 02:05:07;;;;;;;1999.90;999.90;;;7.90;1.00;;;;;;5009723;28;20502;-78
2022/12/07 02:07:36;;;;;;;1999.90;999.90;;;7.20;1.00;;;;;;5010518;28;20379;-76
2022/12/07 02:10:29;;;;;;;1999.90;999.90;;;7.00;1.00;;;;;;4978762;28;20087;-76
2022/12/07 02:12:59;;;;;;;1999.90;999.90;;;7.20;99.90;;;;;;5011341;28;20046;-76
2022/12/07 02:15:34;;;;;;;1999.90;999.90;;;8.10;69.50;;;;;;5012647;28;20046;-78
2022/12/07 02:18:06;;;;;;;1999.90;999.90;;;7.00;99.90;;;;;;5011754;28;20037;-76
2022/12/07 02:21:09;;;;;;;1999.90;999.90;;;6.70;99.90;;;;;;5010070;28;20491;-76
2022/12/07 02:24:02;;;;;;;1999.90;999.90;;;6.60;99.90;;;;;;4992577;28;20046;-76
2022/12/07 02:26:53;;;;;;;1999.90;999.90;;;6.70;99.90;;;;;;5011084;28;20117;-75
2022/12/07 02:29:30;;;;;;;1999.90;999.90;;;6.30;99.90;;;;;;5009002;28;20360;-76
2022/12/07 02:32:06;;;;;;;1999.90;999.90;;;6.60;99.90;;;;;;5012434;28;20041;-75
2022/12/07 02:34:48;;;;;;;1999.90;999.90;;;7.10;99.90;;;;;;5010953;28;20092;-75
2022/12/07 02:37:37;;;;;;;1999.90;999.90;;;6.60;99.90;;;;;;4977039;28;20042;-75
2022/12/07 02:40:03;;;;;;;;;;;6.60;99.90;;;;;;5011497;28;20042;-75
2022/12/07 02:42:37;;;;;;;1999.90;999.90;;;6.80;99.90;;;;;;5011283;28;19923;-75
2022/12/07 02:45:04;;;;;;;1999.90;999.90;;;6.30;99.90;;;;;;5008362;28;20115;-83
2022/12/07 02:47:33;;;;;;;1999.90;999.90;;;6.90;99.90;;;;;;5001282;28;20092;-77
2022/12/07 02:49:59;;;;;;;1999.90;999.90;;;6.90;99.90;;;;;;5010677;28;20454;-75
2022/12/07 02:52:24;;;;;;;1999.90;999.90;;;6.80;99.90;;;;;;5008288;28;20458;-75
2022/12/07 02:54:50;;;;;;;1999.90;999.90;;;7.60;99.90;;;;;;5010844;28;20072;-76
2022/12/07 02:57:48;;;;;;;1999.90;999.90;;;6.70;99.90;;;;;;5009815;28;20136;-76
2022/12/07 03:00:17;;;;;;;1999.90;999.90;;;6.80;99.90;;;;;;4997120;28;20053;-75
2022/12/07 03:03:03;;;;;;;1999.90;999.90;;;7.00;99.90;;;;;;5011812;28;20033;-76
2022/12/07 03:05:47;;;;;;;1999.90;999.90;;;8.40;99.90;;;;;;5009540;28;20104;-75
2022/12/07 03:08:42;;;;;;;1999.90;999.90;;;7.20;99.90;;;;;;5007888;28;20041;-75
2022/12/07 03:11:17;;;;;;;1999.90;999.90;;;6.90;99.90;;;;;;5008604;28;20139;-75
2022/12/07 03:13:52;;;;;;;1999.90;999.90;;;7.10;99.90;;;;;;5009426;28;20172;-75
2022/12/07 03:16:27;;;;;;;1999.90;999.90;;;8.10;99.90;;;;;;5009928;28;20041;-76
2022/12/07 03:19:09;;;;;;;1999.90;999.90;;;7.90;99.90;;;;;;4985567;28;20046;-76
2022/12/07 03:21:46;;;;;;;1999.90;999.90;;;7.10;99.90;;;;;;5005735;28;20044;-75
2022/12/07 03:24:17;;;;;;;1999.90;999.90;;;8.50;99.90;;;;;;5009357;28;20196;-75
2022/12/07 03:26:55;;;;;;;1999.90;999.90;;;6.60;99.90;;;;;;5010057;28;20065;-76
2022/12/07 03:29:31;;;;;;;;;;;6.80;99.90;;;;;;5005586;28;20037;-78
2022/12/07 03:32:08;;;;;;;1999.90;999.90;;;7.00;99.90;;;;;;5011032;28;20004;-76
2022/12/07 03:34:44;;;;;;;1999.90;999.90;;;7.10;99.90;;;;;;5010717;28;20053;-77
2022/12/07 03:37:20;;;;;;;1999.90;999.90;;;7.20;99.90;;;;;;5008475;28;20030;-76
2022/12/07 03:40:12;;;;;;;1999.90;999.90;;;7.30;99.90;;;;;;5009324;28;20046;-76
2022/12/07 03:42:38;;;;;;;1999.90;999.90;;;6.90;99.90;;;;;;5011686;28;20042;-75
2022/12/07 03:45:07;;;;;;;1999.90;999.90;;;8.10;99.90;;;;;;5009916;28;20046;-75
2022/12/07 03:47:35;;;;;;;;;;;6.80;99.90;;;;;;4994702;28;20041;-76
2022/12/07 03:50:10;;;;;;;1999.90;999.90;;;6.70;99.90;;;;;;5008962;28;19929;-76
2022/12/07 03:52:39;;;;;;;1999.90;999.90;;;6.70;99.90;;;;;;4980077;28;20038;-76
2022/12/07 03:55:14;;;;;;;1999.90;999.90;;;8.20;99.90;;;;;;5010088;28;20038;-76
2022/12/07 03:57:42;;;;;;;1999.90;999.90;;;5.80;99.90;;;;;;5012204;28;20041;-76
2022/12/07 04:00:09;;;;;;;;;;;8.40;99.90;;;;;;5010874;28;20422;-75
2022/12/07 04:02:35;;;;;;;1999.90;999.90;;;6.70;99.90;;;;;;5014296;28;19918;-76
2022/12/07 04:05:01;;;;;;;1999.90;999.90;;;8.30;99.90;;;;;;5009699;28;20057;-75
2022/12/07 04:07:27;;;;;;;1999.90;999.90;;;6.80;99.90;;;;;;4996674;28;20038;-76
2022/12/07 04:09:54;;;;;;;1999.90;999.90;;;6.80;99.90;;;;;;5013625;28;20394;-76
2022/12/07 04:12:21;;;;;;;1999.90;999.90;;;7.20;99.90;;;;;;5013148;28;20065;-76
2022/12/07 04:14:46;;;;;;;1999.90;999.90;;;8.20;99.90;;;;;;5015032;28;20363;-76
2022/12/07 04:17:12;;;;;;;1999.90;999.90;;;7.00;99.90;;;;;;5013623;28;20099;-80
2022/12/07 04:19:37;;;;;;;1999.90;999.90;;;6.60;99.90;;;;;;5013340;28;20046;-76
2022/12/07 04:22:06;;;;;;;1999.90;999.90;;;7.20;99.90;;;;;;5013641;28;20041;-75
2022/12/07 04:24:33;;;;;;;1999.90;999.90;;;6.50;99.90;;;;;;5013416;28;20507;-76
2022/12/07 04:26:59;;;;;;;1999.90;999.90;;;7.60;99.90;;;;;;5012523;28;20109;-75
2022/12/07 04:29:25;;;;;;;1999.90;999.90;;;6.00;99.90;;;;;;5011674;28;20116;-80
2022/12/07 04:31:51;;;;;;;1999.90;999.90;;;8.00;99.90;;;;;;5012641;28;20041;-75
2022/12/07 04:34:17;;;;;;;1999.90;999.90;;;6.90;99.90;;;;;;5012029;28;20037;-83
2022/12/07 04:36:44;;;;;;;1999.90;999.90;;;7.80;99.90;;;;;;5011253;28;20034;-75
2022/12/07 04:39:27;;;;;;;1999.90;999.90;;;7.00;99.90;;;;;;5014728;28;20382;-75
2022/12/07 04:41:53;;;;;;;1999.90;999.90;;;8.80;99.90;;;;;;5014812;28;20041;-75
2022/12/07 04:44:19;;;;;;;1999.90;999.90;;;7.40;99.90;;;;;;5013910;28;20121;-78
2022/12/07 04:46:45;;;;;;;1999.90;999.90;;;8.30;99.90;;;;;;5013218;28;20038;-78
2022/12/07 04:49:12;;;;;;;1999.90;999.90;;;6.90;99.90;;;;;;5012351;28;20050;-75
2022/12/07 04:51:38;;;;;;;1999.90;999.90;;;7.00;99.90;;;;;;5007530;28;20042;-77
2022/12/07 04:54:04;;;;;;;1999.90;999.90;;;8.40;99.90;;;;;;4993261;28;20433;-75
2022/12/07 04:56:29;;;;;;;1999.90;999.90;;;7.50;99.90;;;;;;4988674;28;20037;-75
2022/12/07 04:58:55;;;;;;;1999.90;999.90;;;7.40;99.90;;;;;;4997434;28;20041;-75
2022/12/07 05:01:22;;;;;;;1999.90;999.90;;;7.30;99.90;;;;;;5014222;28;20352;-80
2022/12/07 05:03:48;;;;;;;1999.90;999.90;;;8.50;99.90;;;;;;5008802;28;20049;-75
2022/12/07 05:06:14;;;;;;;1999.90;999.90;;;7.90;99.90;;;;;;4989579;28;20056;-77
2022/12/07 05:08:40;;;;;;;1999.90;999.90;;;8.80;99.90;;;;;;5011676;28;20129;-75
2022/12/07 05:11:07;;;;;;;1999.90;999.90;;;7.20;99.90;;;;;;5013725;28;20064;-75
2022/12/07 05:13:33;;;;;;;1999.90;999.90;;;7.80;99.90;;;;;;5012638;28;20091;-74
2022/12/07 05:15:59;;;;;;;1999.90;999.90;;;8.10;99.90;;;;;;5011503;28;20056;-75
2022/12/07 05:18:24;;;;;;;1999.90;999.90;;;7.90;99.90;;;;;;5000023;28;20041;-72
2022/12/07 05:20:51;;;;;;;1999.90;999.90;;;7.60;99.90;;;;;;5012275;28;20077;-76
2022/12/07 05:23:17;;;;;;;1999.90;999.90;;;7.50;99.90;;;;;;4993578;28;20048;-75
2022/12/07 05:25:43;;;;;;;1999.90;999.90;;;7.20;99.90;;;;;;5007557;28;20057;-76
2022/12/07 05:28:09;;;;;;;1999.90;999.90;;;7.00;99.90;;;;;;4995265;28;20042;-75
2022/12/07 05:30:35;;;;;;;1999.90;999.90;;;6.70;99.90;;;;;;5002121;28;20080;-73
2022/12/07 05:33:01;;;;;;;1999.90;999.90;;;7.20;99.90;;;;;;5010783;28;20065;-72
2022/12/07 05:35:26;;;;;;;1999.90;999.90;;;7.00;99.90;;;;;;5011360;28;20459;-72
2022/12/07 05:37:52;;;;;;;1999.90;999.90;;;7.30;99.90;;;;;;5011742;28;20128;-71
2022/12/07 05:40:18;;;;;;;1999.90;999.90;;;6.70;99.90;;;;;;4996731;28;20487;-71
2022/12/07 05:42:44;;;;;;;1999.90;999.90;;;6.30;99.90;;;;;;4976636;28;20126;-71
2022/12/07 05:45:11;;;;;;;1999.90;999.90;;;7.80;99.90;;;;;;5012064;28;20046;-71
2022/12/07 05:47:37;;;;;;;1999.90;999.90;;;6.20;99.90;;;;;;4996048;28;20096;-72
2022/12/07 05:50:04;;;;;;;1999.90;999.90;;;6.10;99.90;;;;;;5013239;28;20042;-71
2022/12/07 05:52:29;;;;;;;1999.90;999.90;;;6.50;99.90;;;;;;5012917;28;20447;-71
2022/12/07 05:54:55;;;;;;;1999.90;999.90;;;6.50;99.90;;;;;;5012457;28;20076;-71
2022/12/07 05:57:21;;;;;;;1999.90;999.90;;;6.40;99.90;;;;;;5011432;28;20069;-71
2022/12/07 05:59:47;;;;;;;1999.90;999.90;;;5.80;99.90;;;;;;5010891;28;20064;-72
2022/12/07 06:02:14;;;;;;;1999.90;999.90;;;6.60;99.90;;;;;;4995487;28;20042;-71
2022/12/07 06:04:42;;;;;;;1999.90;999.90;;;7.40;99.90;;;;;;5011169;28;20049;-72
2022/12/07 06:07:10;;;;;;;1999.90;999.90;;;7.10;99.90;;;;;;5013145;28;20050;-71
2022/12/07 06:09:36;;;;;;;1999.90;999.90;;;6.70;99.90;;;;;;5013211;28;20196;-73
2022/12/07 06:14:47;;;;;;;1999.90;999.90;;;6.50;99.90;;;;;;5012591;28;20084;-71
2022/12/07 06:17:13;;;;;;;1999.90;999.90;;;6.30;99.90;;;;;;5011800;28;20049;-71
2022/12/07 06:19:39;;;;;;;1999.90;999.90;;;6.70;99.90;;;;;;5012373;28;20053;-71
2022/12/07 06:22:06;;;;;;;1999.90;999.90;;;6.60;99.90;;;;;;5012040;28;20042;-71
2022/12/07 06:24:32;;;;;;;1999.90;999.90;;;7.10;99.90;;;;;;5012007;28;20042;-72
2022/12/07 06:26:58;;;;;;;1999.90;999.90;;;6.60;99.90;;;;;;5013236;28;20132;-71
2022/12/07 06:29:24;;;;;;;1999.90;999.90;;;7.60;99.90;;;;;;4995810;28;20185;-71
2022/12/07 06:31:50;;;;;;;1999.90;999.90;;;6.50;99.90;;;;;;5008397;28;20050;-71
2022/12/07 06:34:18;;;;;;;1999.90;999.90;;;7.00;99.90;;;;;;5010398;28;20128;-71
2022/12/07 06:36:44;;;;;;;1999.90;999.90;;;6.40;99.90;;;;;;4990678;28;20058;-73
2022/12/07 06:39:10;;;;;;;1999.90;999.90;;;6.40;99.90;;;;;;5011873;28;20065;-72
2022/12/07 06:41:37;;;;;;;1999.90;999.90;;;6.50;99.90;;;;;;5010077;28;20046;-72
2022/12/07 06:44:04;;;;;;;1999.90;999.90;;;7.70;99.90;;;;;;5009776;28;20038;-72
2022/12/07 06:46:30;;;;;;;1999.90;999.90;;;8.50;99.90;;;;;;4993768;28;20041;-71
2022/12/07 06:48:56;;;;;;;1999.90;999.90;;;6.90;99.90;;;;;;5010783;28;20096;-72
2022/12/07 06:51:22;;;;;;;1999.90;999.90;;;8.30;99.90;;;;;;5011493;28;20049;-71
2022/12/07 06:53:48;;;;;;;1999.90;999.90;;;8.10;99.90;;;;;;5005728;28;20058;-75
2022/12/07 06:56:13;;;;;;;1999.90;999.90;;;6.90;99.90;;;;;;4993357;28;20046;-71
2022/12/07 06:58:40;;;;;;;1999.90;999.90;;;7.20;99.90;;;;;;5013611;28;20057;-71
2022/12/07 07:01:13;;;;;;;1999.90;999.90;;;7.00;99.90;;;;;;5011317;28;20050;-72
2022/12/07 07:03:38;;;;;;;1999.90;999.90;;;5.70;99.90;;;;;;5007649;28;20045;-71
2022/12/07 07:06:05;;;;;;;1999.90;999.90;;;8.00;99.90;;;;;;5009995;28;20045;-76
2022/12/07 07:08:31;;;;;;;1999.90;999.90;;;6.20;99.90;;;;;;5010600;28;20120;-71
2022/12/07 07:10:57;;;;;;;1999.90;999.90;;;7.50;99.90;;;;;;5010671;28;20444;-71
2022/12/07 07:13:23;;;;;;;1999.90;999.90;;;6.30;99.90;;;;;;5008852;28;20136;-71
2022/12/07 07:15:48;;;;;;;1999.90;999.90;;;6.00;99.90;;;;;;4988849;28;20045;-72
2022/12/07 07:18:14;;;;;;;1999.90;999.90;;;6.80;99.90;;;;;;4994046;28;20045;-72
2022/12/07 07:20:40;;;;;;;1999.90;999.90;;;6.50;99.90;;;;;;5009883;28;20069;-71
2022/12/07 07:23:06;;;;;;;1999.90;999.90;;;8.00;99.90;;;;;;5011587;28;20562;-71
2022/12/07 07:25:31;;;;;;;1999.90;999.90;;;7.30;99.90;;;;;;4993167;28;20128;-70
2022/12/07 07:27:57;;;;;;;1999.90;999.90;;;5.90;99.90;;;;;;5011199;28;20176;-71
2022/12/07 07:30:23;;;;;;;1999.90;999.90;;;6.60;99.90;;;;;;5013698;28;20037;-71
2022/12/07 07:32:49;;;;;;;1999.90;999.90;;;6.40;99.90;;;;;;4985793;28;20055;-72
2022/12/07 07:35:15;;;;;;;1999.90;999.90;;;6.30;99.90;;;;;;5015928;28;20049;-71
2022/12/07 07:37:41;;;;;;;1999.90;999.90;;;6.50;99.90;;;;;;5012462;28;20467;-77
2022/12/07 07:40:08;;;;;;;1999.90;999.90;;;8.10;99.90;;;;;;4996456;28;20050;-72
2022/12/07 07:42:34;;;;;;;1999.90;999.90;;;6.60;99.90;;;;;;4998875;28;20050;-71
2022/12/07 07:44:59;;;;;;;1999.90;999.90;;;7.80;99.90;;;;;;5015895;28;20049;-71
2022/12/07 07:47:25;;;;;;;1999.90;999.90;;;6.50;99.90;;;;;;5016615;28;20037;-71
2022/12/07 07:49:51;;;;;;;1999.90;999.90;;;8.60;99.90;;;;;;4980338;28;20511;-71
2022/12/07 07:52:16;;;;;;;1999.90;999.90;;;6.80;99.90;;;;;;4997381;28;20051;-71
2022/12/07 07:54:42;;;;;;;1999.90;999.90;;;8.20;99.90;;;;;;5015062;28;20052;-78
2022/12/07 07:57:08;;;;;;;1999.90;999.90;;;6.10;99.90;;;;;;5014652;28;20052;-71
2022/12/07 07:59:33;;;;;;;1999.90;999.90;;;6.60;99.90;;;;;;5016016;28;20045;-72
2022/12/07 08:01:59;;;;;;;1999.90;999.90;;;6.40;99.90;;;;;;5015691;28;20042;-71
2022/12/07 08:04:25;;;;;;;1999.90;999.90;;;7.50;99.90;;;;;;5007381;28;20082;-71
2022/12/07 08:06:51;;;;;;;1999.90;999.90;;;6.50;99.90;;;;;;4997349;28;20453;-72
2022/12/07 08:09:17;;;;;;;1999.90;999.90;;;6.00;99.90;;;;;;5015958;28;20064;-71
2022/12/07 08:11:43;;;;;;;1999.90;999.90;;;5.50;99.90;;;;;;4997695;28;20152;-79
2022/12/07 08:14:10;;;;;;;1999.90;999.90;;;6.50;99.90;;;;;;4996725;28;20115;-71
2022/12/07 08:16:37;;;;;;;1999.90;999.90;;;6.50;99.90;;;;;;5017588;28;20072;-72
2022/12/07 08:19:05;;;;;;;1999.90;999.90;;;7.00;99.90;;;;;;5013777;28;20384;-73
2022/12/07 08:21:30;;;;;;;1999.90;999.90;;;7.90;99.90;;;;;;5011979;28;20179;-72
2022/12/07 08:23:57;;;;;;;1999.90;999.90;;;8.10;99.90;;;;;;5004180;28;20157;-71
2022/12/07 08:26:23;;;;;;;1999.90;999.90;;;8.00;99.90;;;;;;5013419;28;20038;-71
2022/12/07 08:28:48;;;;;;;1999.90;999.90;;;8.00;99.90;;;;;;5014361;28;20121;-71
2022/12/07 08:31:17;;;;;;;1999.90;999.90;;;6.80;99.90;;;;;;4994562;28;20042;-72
2022/12/07 08:33:46;;;;;;;1999.90;999.90;;;6.80;99.90;;;;;;5008082;28;20050;-71
2022/12/07 08:36:12;;;;;;;1999.90;999.90;;;6.90;99.90;;;;;;4996584;28;20088;-71
2022/12/07 08:38:40;;;;;;;1999.90;999.90;;;7.20;99.90;;;;;;5014702;28;20418;-71
2022/12/07 08:41:06;;;;;;;1999.90;999.90;;;6.90;99.90;;;;;;5013495;28;20204;-71
2022/12/07 08:43:33;;;;;;;1999.90;999.90;;;7.80;99.90;;;;;;5013999;28;20100;-71
2022/12/07 08:46:13;;;;;;;1999.90;999.90;;;8.90;99.90;;;;;;5014850;28;20089;-71
2022/12/07 08:48:51;;;;;;;1999.90;999.90;;;7.50;99.90;;;;;;4996122;28;20046;-71
2022/12/07 08:51:17;;;;;;;1999.90;999.90;;;8.00;99.90;;;;;;5014306;28;20054;-71
2022/12/07 08:53:43;;;;;;;1999.90;999.90;;;7.60;99.90;;;;;;5007021;28;20371;-71
2022/12/07 08:56:09;;;;;;;1999.90;999.90;;;7.50;99.90;;;;;;4994148;28;20046;-71
2022/12/07 08:58:37;;;;;;;1999.90;999.90;;;7.00;99.90;;;;;;5014186;28;20052;-71
2022/12/07 09:01:03;;;;;;;1999.90;999.90;;;7.30;99.90;;;;;;4997398;28;20379;-71
2022/12/07 09:03:29;;;;;;;1999.90;999.90;;;7.30;99.90;;;;;;5011981;28;20065;-74
2022/12/07 09:05:54;;;;;;;1999.90;999.90;;;6.80;99.90;;;;;;4995259;28;20196;-71
2022/12/07 09:08:22;;;;;;;1999.90;999.90;;;7.30;99.90;;;;;;5013066;28;20068;-71
2022/12/07 09:10:48;;;;;;;1999.90;999.90;;;;;;;;;;5013560;28;20116;-78
2022/12/07 09:13:14;;;;;;;1999.90;999.90;;;7.30;99.90;;;;;;5012953;28;20089;-73
2022/12/07 09:15:40;;;;;;;1999.90;999.90;;;7.20;99.90;;;;;;5013514;28;20085;-73
2022/12/07 09:18:05;;;;;;;1999.90;999.90;;;8.30;99.90;;;;;;5013201;28;20049;-72
2022/12/07 09:20:31;;;;;;;1999.90;999.90;;;9.60;99.90;;;;;;5012924;28;20038;-72
2022/12/07 09:22:57;;;;;;;1999.90;999.90;;;7.40;99.90;;;;;;5011871;28;20442;-72
2022/12/07 09:25:22;;;;;;;1999.90;999.90;;;7.30;99.90;;;;;;4994455;28;20137;-72
2022/12/07 09:27:54;;;;;;;1999.90;999.90;;;7.70;99.90;;;;;;4996459;28;20045;-72
2022/12/07 09:30:20;;;;;;;1999.90;999.90;;;8.00;99.90;;;;;;4996049;28;20437;-72
2022/12/07 09:32:45;;;;;;;1999.90;999.90;;;8.90;99.90;;;;;;5012931;28;20045;-72
2022/12/07 09:35:11;;;;;;;1999.90;999.90;;;8.00;99.90;;;;;;5012829;28;20053;-72
2022/12/07 09:37:37;;;;;;;1999.90;999.90;;;;;;;;;;5013227;28;20038;-72
2022/12/07 09:40:04;;;;;;;1999.90;999.90;;;8.30;99.90;;;;;;5010326;28;20100;-71
2022/12/07 09:42:39;;;;;;;1999.90;999.90;;;8.40;99.90;;;;;;4996479;28;20088;-71
2022/12/07 09:45:07;;;;;;;1999.90;999.90;;;8.20;99.90;;;;;;4996550;28;20054;-71
2022/12/07 09:47:36;;;;;;;1999.90;999.90;;;8.30;99.90;;;;;;5013262;28;20038;-71
2022/12/07 09:50:12;;;;;;;1999.90;999.90;;;7.60;99.90;;;;;;5010773;28;20046;-72
2022/12/07 09:52:39;;;;;;;1999.90;999.90;;;8.50;99.90;;;;;;4994176;28;20059;-71
2022/12/07 09:55:11;;;;;;;1999.90;999.90;;;10.10;99.90;;;;;;5011157;28;20549;-72
2022/12/07 09:57:37;;;;;;;1999.90;999.90;;;8.30;99.90;;;;;;5012196;28;20446;-71
2022/12/07 10:00:15;;;;;;;1999.90;999.90;;;7.20;99.90;;;;;;5009941;28;20062;-71
2022/12/07 10:02:49;;;;;;;1999.90;999.90;;;8.40;99.90;;;;;;4994016;28;20475;-71
2022/12/07 10:05:27;;;;;;;1999.90;999.90;;;9.50;99.90;;;;;;5002782;28;20046;-71
2022/12/07 10:07:53;;;;;;;1999.90;999.90;;;8.50;99.90;;;;;;4997609;28;20479;-71
2022/12/07 10:10:30;;;;;;;1999.90;999.90;;;8.20;99.90;;;;;;5012452;28;20299;-71
2022/12/07 10:13:00;;;;;;;1999.90;999.90;;;10.00;99.90;;;;;;5012535;28;20089;-72
2022/12/07 10:15:46;;;;;;;1999.90;999.90;;;8.70;99.90;;;;;;5012826;28;20041;-71
2022/12/07 10:18:26;;;;;;;1999.90;999.90;;;7.40;99.90;;;;;;4994891;28;20057;-71
2022/12/07 10:21:02;;;;;;;1999.90;999.90;;;8.30;99.90;;;;;;5011517;28;20050;-71
2022/12/07 10:23:28;;;;;;;1999.90;999.90;;;8.50;99.90;;;;;;5006333;28;20053;-73
2022/12/07 10:25:54;;;;;;;1999.90;999.90;;;8.40;99.90;;;;;;4992514;28;20046;-72
2022/12/07 10:28:21;;;;;;;1999.90;999.90;;;9.70;99.90;;;;;;4992907;28;20500;-74
2022/12/07 10:31:04;;;;;;;1999.90;999.90;;;9.00;99.90;;;;;;4978896;28;20140;-72
2022/12/07 10:33:32;;;;;;;1999.90;999.90;;;8.80;99.90;;;;;;5012246;28;20050;-74
2022/12/07 10:35:58;;;;;;;1999.90;999.90;;;9.90;99.90;;;;;;5012044;28;20053;-72
2022/12/07 10:38:26;;;;;;;1999.90;999.90;;;9.10;99.90;;;;;;5012870;28;20042;-72
2022/12/07 10:41:12;;;;;;;1999.90;999.90;;;10.60;99.90;;;;;;5011414;28;20129;-72
2022/12/07 10:43:51;;;;;;;1999.90;999.90;;;9.10;99.90;;;;;;4994867;28;20062;-72
2022/12/07 10:46:23;;;;;;;1642.57;764.78;;;9.20;99.90;;;;;;5012121;28;20475;-77
2022/12/07 10:49:29;;;;;;;1999.90;999.90;;;9.70;99.90;;;;;;5011036;28;20829;-72
2022/12/07 10:52:09;;;;;;;1999.90;999.90;;;8.70;99.90;;;;;;4992970;28;20368;-72
2022/12/07 10:54:47;;;;;;;1999.90;999.90;;;8.80;99.90;;;;;;4993705;28;20052;-72
2022/12/07 10:57:41;;;;;;;1999.90;999.90;;;8.50;99.90;;;;;;4995862;28;20107;-72
2022/12/07 11:00:24;;;;;;;1999.90;999.90;;;8.90;99.90;;;;;;5001613;28;20069;-72
2022/12/07 11:02:55;;;;;;;1999.90;999.90;;;8.80;99.90;;;;;;5012762;28;20117;-72
2022/12/07 11:05:34;;;;;;;1999.90;999.90;;;9.10;99.90;;;;;;4995573;28;20125;-72
2022/12/07 11:08:25;;;;;;;1999.90;999.90;;;10.20;99.90;;;;;;4999005;28;20045;-72
2022/12/07 11:11:09;;;;;;;1999.90;999.90;;;9.70;99.90;;;;;;5012194;28;20045;-74
2022/12/07 11:14:03;;;;;;;1999.90;999.90;;;9.40;99.90;;;;;;5012064;28;20084;-72
2022/12/07 11:16:57;;;;;;;1999.90;999.90;;;9.80;99.90;;;;;;4995470;28;20061;-73
2022/12/07 11:19:35;;;;;;;1999.90;999.90;;;9.70;99.90;;;;;;5011095;28;20064;-72
2022/12/07 11:22:16;;;;;;;1999.90;999.90;;;9.50;99.90;;;;;;5011905;28;20076;-73
2022/12/07 11:25:16;;;;;;;1999.90;999.90;;;9.60;99.90;;;;;;5012597;28;20339;-73
2022/12/07 11:28:14;;;;;;;1999.90;604.25;;;9.80;99.90;;;;;;5012149;28;20050;-72
2022/12/07 11:30:50;;;;;;;1999.90;999.90;;;9.80;99.90;;;;;;4993040;28;20053;-72
2022/12/07 11:33:28;;;;;;;1999.90;999.90;;;9.50;99.90;;;;;;4992514;28;20050;-73
2022/12/07 11:36:16;;;;;;;1999.90;999.90;;;9.70;99.90;;;;;;4991864;28;20135;-72
2022/12/07 11:38:41;;;;;;;1999.90;999.90;;;9.90;99.90;;;;;;5011012;28;20096;-72
2022/12/07 11:41:15;;;;;;;1999.90;999.90;;;10.20;99.90;;;;;;5010193;28;20061;-73
2022/12/07 11:44:07;;;;;;;1999.90;999.90;;;10.00;99.90;;;;;;5012172;28;20049;-73
2022/12/07 11:46:53;;;;;;;1999.90;999.90;;;10.10;99.90;;;;;;4992851;28;20038;-72
2022/12/07 11:49:47;;;;;;;1999.90;999.90;;;10.50;99.90;;;;;;4979398;28;20046;-72
2022/12/07 11:52:42;;;;;;;1999.90;999.90;;;10.20;99.90;;;;;;5010667;28;20562;-72
2022/12/07 11:55:36;;;;;;;1999.90;999.90;;;10.90;99.90;;;;;;4989703;28;20131;-73
2022/12/07 11:58:11;;;;;;;1999.90;999.90;;;10.30;99.90;;;;;;4994981;28;20181;-73
2022/12/07 12:00:38;;;;;;;1999.90;999.90;;;11.40;99.90;;;;;;5009556;28;20058;-72
2022/12/07 12:03:15;;;;;;;1999.90;999.90;;;10.20;99.90;;;;;;5010290;28;20041;-73
2022/12/07 12:05:41;;;;;;;1999.90;999.90;;;10.10;99.90;;;;;;5011396;28;20399;-74
2022/12/07 12:08:20;;;;;;;1999.90;999.90;;;9.90;99.90;;;;;;5011741;28;20042;-73
2022/12/07 12:11:18;;;;;;;1999.90;999.90;;;9.80;99.90;;;;;;5011050;28;20041;-73
2022/12/07 12:14:07;;;;;;;1999.90;999.90;;;9.80;99.90;;;;;;4990207;28;20058;-73
2022/12/07 12:16:41;;;;;;;1999.90;999.90;;;10.00;99.90;;;;;;4972735;28;20049;-76
2022/12/07 12:19:26;;;;;;;1999.90;999.90;;;9.70;99.90;;;;;;4997913;28;20049;-74
2022/12/07 12:22:33;;;;;;;1999.90;999.90;;;9.80;99.90;;;;;;5012767;28;20564;-73
2022/12/07 12:24:59;;;;;;;1999.90;999.90;;;9.80;99.90;;;;;;5006203;28;20592;-72
2022/12/07 12:27:30;;;;;;;1999.90;999.90;;;10.10;99.90;;;;;;5008916;28;20041;-73
2022/12/07 12:29:59;;;;;;;1999.90;999.90;;;9.80;99.90;;;;;;5015643;28;20045;-73
2022/12/07 12:32:42;;;;;;;1999.90;999.90;;;9.90;99.90;;;;;;5015500;28;20565;-73